createdAt,value
2023-05-05T00:00:27.571Z,25.00
2023-05-05T00:01:27.558Z,0.00
2023-05-05T00:02:27.692Z,0.00
2023-05-05T00:03:27.681Z,0.00
2023-05-05T00:04:27.587Z,0.00
2023-05-05T00:05:27.593Z,9.12
2023-05-05T00:06:27.606Z,15.92
2023-05-05T00:07:27.619Z,26.23
2023-05-05T00:08:27.604Z,25.77
2023-05-05T00:09:27.627Z,31.80
2023-05-05T00:10:27.631Z,31.56
2023-05-05T00:11:27.723Z,29.51
2023-05-05T00:12:27.769Z,50.34
2023-05-05T00:13:27.836Z,32.87
2023-05-05T00:14:27.888Z,47.92
2023-05-05T00:15:27.958Z,50.17
2023-05-05T00:16:28.088Z,60.03
2023-05-05T00:17:28.113Z,65.71
2023-05-05T00:18:28.191Z,65.18
2023-05-05T00:19:28.222Z,66.19
2023-05-05T00:20:28.277Z,50.87
2023-05-05T00:21:28.354Z,30.80
2023-05-05T00:22:28.403Z,48.28
2023-05-05T00:23:28.468Z,94.23
2023-05-05T00:24:28.512Z,47.48
2023-05-05T00:25:28.585Z,24.96
2023-05-05T00:26:28.645Z,23.68
2023-05-05T00:27:28.725Z,28.71
2023-05-05T00:28:28.778Z,26.10
2023-05-05T00:29:29.205Z,41.73
2023-05-05T00:30:28.889Z,38.67
2023-05-05T00:31:29.014Z,63.34
2023-05-05T00:32:29.031Z,31.00
2023-05-05T00:33:29.087Z,27.25
2023-05-05T00:34:29.141Z,3.87
2023-05-05T00:35:29.214Z,11.93
2023-05-05T00:36:29.307Z,33.18
2023-05-05T00:37:29.342Z,25.00
2023-05-05T00:38:29.403Z,22.61
2023-05-05T00:39:29.471Z,32.62
2023-05-05T00:40:29.537Z,11.64
2023-05-05T00:41:29.666Z,2.76
2023-05-05T00:42:29.640Z,30.06
2023-05-05T00:43:29.796Z,47.27
2023-05-05T00:44:29.811Z,31.00
2023-05-05T00:45:29.817Z,40.38
2023-05-05T00:46:29.943Z,78.79
2023-05-05T00:47:29.918Z,172.55
2023-05-05T00:48:29.912Z,253.41
2023-05-05T00:49:30.026Z,288.18
2023-05-05T00:50:29.981Z,306.07
2023-05-05T00:51:30.045Z,324.72
2023-05-05T00:52:30.106Z,332.50
2023-05-05T00:53:30.164Z,330.81
2023-05-05T00:54:30.232Z,303.33
2023-05-05T00:55:30.261Z,251.19
2023-05-05T00:56:30.288Z,249.82
2023-05-05T00:57:30.351Z,238.88
2023-05-05T00:58:30.424Z,244.08
2023-05-05T00:59:30.525Z,221.76
2023-05-05T01:00:30.569Z,224.34
2023-05-05T01:01:30.703Z,208.86
2023-05-05T01:02:30.975Z,173.07
2023-05-05T01:03:30.886Z,139.74
2023-05-05T01:04:30.871Z,123.44
2023-05-05T01:05:30.935Z,108.98
2023-05-05T01:06:30.884Z,89.87
2023-05-05T01:07:30.834Z,81.67
2023-05-05T01:08:30.899Z,96.42
2023-05-05T01:09:30.889Z,106.54
2023-05-05T01:10:30.924Z,85.53
2023-05-05T01:11:30.965Z,70.44
2023-05-05T01:12:31.056Z,68.19
2023-05-05T01:13:31.072Z,66.85
2023-05-05T01:14:31.086Z,76.19
2023-05-05T01:15:31.162Z,85.81
2023-05-05T01:16:31.226Z,87.29
2023-05-05T01:17:31.348Z,86.90
2023-05-05T01:18:31.313Z,88.07
2023-05-05T01:19:31.390Z,85.48
2023-05-05T01:20:31.477Z,92.92
2023-05-05T01:21:31.534Z,83.53
2023-05-05T01:22:31.719Z,72.64
2023-05-05T01:23:30.705Z,76.66
2023-05-05T01:24:31.768Z,68.50
2023-05-05T01:25:31.874Z,65.18
2023-05-05T01:26:31.897Z,73.02
2023-05-05T01:27:31.956Z,74.36
2023-05-05T01:28:32.008Z,77.05
2023-05-05T01:29:32.049Z,95.31
2023-05-05T01:30:32.084Z,100.53
2023-05-05T01:31:32.149Z,99.42
2023-05-05T01:32:32.190Z,112.92
2023-05-05T01:33:32.115Z,126.04
2023-05-05T01:34:32.142Z,148.24
2023-05-05T01:35:32.180Z,158.12
2023-05-05T01:36:32.193Z,163.02
2023-05-05T01:37:32.212Z,164.57
2023-05-05T01:38:32.227Z,128.69
2023-05-05T01:39:32.231Z,107.51
2023-05-05T01:40:32.283Z,106.68
2023-05-05T01:41:32.282Z,115.33
2023-05-05T01:42:32.339Z,122.41
2023-05-05T01:43:32.329Z,121.29
2023-05-05T01:44:32.351Z,114.28
2023-05-05T01:45:32.445Z,102.06
2023-05-05T01:46:32.403Z,78.42
2023-05-05T01:47:32.509Z,72.83
2023-05-05T01:48:32.452Z,83.85
2023-05-05T01:49:32.492Z,98.88
2023-05-05T01:50:32.539Z,110.49
2023-05-05T01:51:32.570Z,125.40
2023-05-05T01:52:32.595Z,116.45
2023-05-05T01:53:32.649Z,108.40
2023-05-05T01:54:32.662Z,108.26
2023-05-05T01:55:32.672Z,116.59
2023-05-05T01:56:32.744Z,128.63
2023-05-05T01:57:33.598Z,155.27
2023-05-05T01:58:32.781Z,192.67
2023-05-05T01:59:32.835Z,230.14
2023-05-05T02:00:32.890Z,253.20
2023-05-05T02:01:32.991Z,262.44
2023-05-05T02:02:33.003Z,261.64
2023-05-05T02:03:33.020Z,260.06
2023-05-05T02:04:33.027Z,252.58
2023-05-05T02:05:33.070Z,248.79
2023-05-05T02:06:33.086Z,250.00
2023-05-05T02:07:33.141Z,231.74
2023-05-05T02:08:33.228Z,204.70
2023-05-05T02:09:33.244Z,201.20
2023-05-05T02:10:33.317Z,196.18
2023-05-05T02:11:33.376Z,195.19
2023-05-05T02:12:33.460Z,190.22
2023-05-05T02:13:33.523Z,189.12
2023-05-05T02:14:33.562Z,182.71
2023-05-05T02:15:33.627Z,181.06
2023-05-05T02:16:33.646Z,167.67
2023-05-05T02:17:33.725Z,161.01
2023-05-05T02:18:33.713Z,157.17
2023-05-05T02:19:33.821Z,160.62
2023-05-05T02:20:33.864Z,160.36
2023-05-05T02:21:33.886Z,166.62
2023-05-05T02:22:34.008Z,171.17
2023-05-05T02:23:33.974Z,171.48
2023-05-05T02:24:34.007Z,168.61
2023-05-05T02:25:34.075Z,167.91
2023-05-05T02:26:34.098Z,160.00
2023-05-05T02:27:34.156Z,156.56
2023-05-05T02:28:34.160Z,159.52
2023-05-05T02:29:34.213Z,165.95
2023-05-05T02:30:34.246Z,180.44
2023-05-05T02:31:34.333Z,197.59
2023-05-05T02:32:34.427Z,208.33
2023-05-05T02:33:34.371Z,211.80
2023-05-05T02:34:34.416Z,213.71
2023-05-05T02:35:34.482Z,216.09
2023-05-05T02:36:34.512Z,222.71
2023-05-05T02:37:34.568Z,230.52
2023-05-05T02:38:34.611Z,233.16
2023-05-05T02:39:34.643Z,234.14
2023-05-05T02:40:34.692Z,223.83
2023-05-05T02:41:34.814Z,224.07
2023-05-05T02:42:34.817Z,224.97
2023-05-05T02:43:34.913Z,231.34
2023-05-05T02:44:34.931Z,234.24
2023-05-05T02:45:34.974Z,242.76
2023-05-05T02:46:35.116Z,249.92
2023-05-05T02:47:35.153Z,250.66
2023-05-05T02:48:35.134Z,252.45
2023-05-05T02:49:35.190Z,249.89
2023-05-05T02:50:35.250Z,247.26
2023-05-05T02:51:35.350Z,247.25
2023-05-05T02:52:35.363Z,249.47
2023-05-05T02:53:35.374Z,243.61
2023-05-05T02:54:35.427Z,234.60
2023-05-05T02:55:35.491Z,224.20
2023-05-05T02:56:35.546Z,219.35
2023-05-05T02:57:35.598Z,207.72
2023-05-05T02:58:35.654Z,211.85
2023-05-05T02:59:35.708Z,204.23
2023-05-05T03:00:35.773Z,203.07
2023-05-05T03:01:35.861Z,197.33
2023-05-05T03:02:35.954Z,185.65
2023-05-05T03:03:36.075Z,170.49
2023-05-05T03:04:35.990Z,170.02
2023-05-05T03:05:36.046Z,155.94
2023-05-05T03:06:36.124Z,155.86
2023-05-05T03:07:36.181Z,156.47
2023-05-05T03:08:36.209Z,153.05
2023-05-05T03:09:36.260Z,154.42
2023-05-05T03:10:36.321Z,152.73
2023-05-05T03:11:36.382Z,152.72
2023-05-05T03:12:36.468Z,159.19
2023-05-05T03:13:36.470Z,158.73
2023-05-05T03:14:36.536Z,161.09
2023-05-05T03:15:36.572Z,163.78
2023-05-05T03:16:36.734Z,165.68
2023-05-05T03:17:36.764Z,166.15
2023-05-05T03:18:36.759Z,158.15
2023-05-05T03:19:36.823Z,158.71
2023-05-05T03:20:36.893Z,161.29
2023-05-05T03:21:36.965Z,158.10
2023-05-05T03:22:37.029Z,151.26
2023-05-05T03:23:37.114Z,148.16
2023-05-05T03:24:37.167Z,145.25
2023-05-05T03:25:37.254Z,141.07
2023-05-05T03:26:37.338Z,138.43
2023-05-05T03:27:37.422Z,128.81
2023-05-05T03:28:37.489Z,128.38
2023-05-05T03:29:37.576Z,118.61
2023-05-05T03:30:37.655Z,116.19
2023-05-05T03:31:37.793Z,118.55
2023-05-05T03:32:37.838Z,111.92
2023-05-05T03:33:37.864Z,101.29
2023-05-05T03:34:38.018Z,97.71
2023-05-05T03:35:37.989Z,99.14
2023-05-05T03:36:38.058Z,99.76
2023-05-05T03:37:38.124Z,108.59
2023-05-05T03:38:38.184Z,112.87
2023-05-05T03:39:38.268Z,109.40
2023-05-05T03:40:44.043Z,111.26
2023-05-05T03:41:38.305Z,111.26
2023-05-05T03:42:38.313Z,111.91
2023-05-05T03:43:38.349Z,113.29
2023-05-05T03:44:38.343Z,114.10
2023-05-05T03:45:38.429Z,118.91
2023-05-05T03:46:38.389Z,113.42
2023-05-05T03:47:38.417Z,110.66
2023-05-05T03:48:38.424Z,103.96
2023-05-05T03:49:38.445Z,98.79
2023-05-05T03:50:38.576Z,100.81
2023-05-05T03:51:38.492Z,98.08
2023-05-05T03:52:38.542Z,96.77
2023-05-05T03:53:38.544Z,99.41
2023-05-05T03:54:38.552Z,104.11
2023-05-05T03:55:38.605Z,106.24
2023-05-05T03:56:38.595Z,110.82
2023-05-05T03:57:38.630Z,107.65
2023-05-05T03:58:38.644Z,115.96
2023-05-05T03:59:38.668Z,115.14
2023-05-05T04:00:38.684Z,120.18
2023-05-05T04:01:38.719Z,124.99
2023-05-05T04:02:39.513Z,122.97
2023-05-05T04:03:38.809Z,118.43
2023-05-05T04:04:38.781Z,122.81
2023-05-05T04:05:38.791Z,124.47
2023-05-05T04:06:38.827Z,130.91
2023-05-05T04:07:38.854Z,136.40
2023-05-05T04:08:38.871Z,145.72
2023-05-05T04:09:38.887Z,144.87
2023-05-05T04:10:38.915Z,141.53
2023-05-05T04:11:39.851Z,143.58
2023-05-05T04:12:39.033Z,149.17
2023-05-05T04:13:38.975Z,155.35
2023-05-05T04:14:38.990Z,148.96
2023-05-05T04:15:39.047Z,143.25
2023-05-05T04:16:39.030Z,141.41
2023-05-05T04:17:39.079Z,136.70
2023-05-05T04:18:39.055Z,138.68
2023-05-05T04:19:39.096Z,136.95
2023-05-05T04:20:39.093Z,129.20
2023-05-05T04:21:39.114Z,125.47
2023-05-05T04:22:39.171Z,124.05
2023-05-05T04:23:39.148Z,118.47
2023-05-05T04:24:39.207Z,122.49
2023-05-05T04:25:39.261Z,127.77
2023-05-05T04:26:39.292Z,137.43
2023-05-05T04:27:39.341Z,183.57
2023-05-05T04:28:39.339Z,230.59
2023-05-05T04:29:39.370Z,243.95
2023-05-05T04:30:39.433Z,256.08
2023-05-05T04:31:39.554Z,263.00
2023-05-05T04:32:39.549Z,246.16
2023-05-05T04:33:39.524Z,246.09
2023-05-05T04:34:39.548Z,251.42
2023-05-05T04:35:39.563Z,250.00
2023-05-05T04:36:39.602Z,249.71
2023-05-05T04:37:39.644Z,241.71
2023-05-05T04:38:39.706Z,244.40
2023-05-05T04:39:39.735Z,253.37
2023-05-05T04:40:39.794Z,253.79
2023-05-05T04:41:39.865Z,250.40
2023-05-05T04:42:39.937Z,246.44
2023-05-05T04:43:40.022Z,241.80
2023-05-05T04:44:40.067Z,235.78
2023-05-05T04:45:40.097Z,223.11
2023-05-05T04:46:40.146Z,195.97
2023-05-05T04:47:40.233Z,174.33
2023-05-05T04:48:40.225Z,157.85
2023-05-05T04:49:40.269Z,147.53
2023-05-05T04:50:40.288Z,138.44
2023-05-05T04:51:40.308Z,136.66
2023-05-05T04:52:40.334Z,100.51
2023-05-05T04:53:40.342Z,94.61
2023-05-05T04:54:40.351Z,95.62
2023-05-05T04:55:40.371Z,81.92
2023-05-05T04:56:40.370Z,83.98
2023-05-05T04:57:40.400Z,86.67
2023-05-05T04:58:40.404Z,86.05
2023-05-05T04:59:40.447Z,90.73
2023-05-05T05:00:40.424Z,98.11
2023-05-05T05:01:40.443Z,95.82
2023-05-05T05:02:40.562Z,86.24
2023-05-05T05:03:40.585Z,94.16
2023-05-05T05:04:40.512Z,105.34
2023-05-05T05:05:40.570Z,107.69
2023-05-05T05:06:40.640Z,100.17
2023-05-05T05:07:40.710Z,115.44
2023-05-05T05:08:40.716Z,207.07
2023-05-05T05:09:40.762Z,253.29
2023-05-05T05:10:40.813Z,263.39
2023-05-05T05:11:40.871Z,264.09
2023-05-05T05:12:41.387Z,262.01
2023-05-05T05:13:40.960Z,256.99
2023-05-05T05:14:40.993Z,249.57
2023-05-05T05:15:41.801Z,250.37
2023-05-05T05:16:41.128Z,244.26
2023-05-05T05:17:41.158Z,230.36
2023-05-05T05:18:41.149Z,231.02
2023-05-05T05:19:41.164Z,240.27
2023-05-05T05:20:41.200Z,248.95
2023-05-05T05:21:41.353Z,250.71
2023-05-05T05:22:41.280Z,250.00
2023-05-05T05:23:41.299Z,245.56
2023-05-05T05:24:41.346Z,239.90
2023-05-05T05:25:41.456Z,234.03
2023-05-05T05:26:41.421Z,227.64
2023-05-05T05:27:41.872Z,230.10
2023-05-05T05:28:41.859Z,239.52
2023-05-05T05:29:41.521Z,246.56
2023-05-05T05:30:41.554Z,250.00
2023-05-05T05:31:41.951Z,246.94
2023-05-05T05:32:41.688Z,239.87
2023-05-05T05:33:41.681Z,223.79
2023-05-05T05:34:41.701Z,223.44
2023-05-05T05:35:41.760Z,229.37
2023-05-05T05:36:41.869Z,231.64
2023-05-05T05:37:41.824Z,233.04
2023-05-05T05:38:41.832Z,234.69
2023-05-05T05:39:43.545Z,235.05
2023-05-05T05:40:41.860Z,241.25
2023-05-05T05:41:41.912Z,243.40
2023-05-05T05:42:41.860Z,245.93
2023-05-05T05:43:41.807Z,246.53
2023-05-05T05:44:41.758Z,247.63
2023-05-05T05:45:41.794Z,246.34
2023-05-05T05:46:41.888Z,247.67
2023-05-05T05:47:41.782Z,241.07
2023-05-05T05:48:41.662Z,244.68
2023-05-05T05:49:41.631Z,247.81
2023-05-05T05:50:42.328Z,250.04
2023-05-05T05:51:57.465Z,250.00
2023-05-05T05:52:41.884Z,250.12
2023-05-05T05:53:41.516Z,250.98
2023-05-05T05:54:41.492Z,252.09
2023-05-05T05:56:42.237Z,250.24
2023-05-05T05:57:44.608Z,250.18
2023-05-05T05:58:41.383Z,250.18
2023-05-05T05:59:41.375Z,250.07
2023-05-05T06:00:56.993Z,248.35
2023-05-05T06:02:41.342Z,250.13
2023-05-05T06:04:56.858Z,242.95
2023-05-05T06:05:48.590Z,250.13
2023-05-05T06:06:41.881Z,250.23
2023-05-05T06:07:41.125Z,250.15
2023-05-05T06:08:41.362Z,250.52
2023-05-05T06:09:42.041Z,251.84
2023-05-05T06:10:41.018Z,254.19
2023-05-05T06:11:41.876Z,256.35
2023-05-05T06:12:42.040Z,249.97
2023-05-05T06:15:48.341Z,245.15
2023-05-05T06:16:40.992Z,239.94
2023-05-05T06:17:40.836Z,240.17
2023-05-05T06:18:40.758Z,235.68
2023-05-05T06:19:40.803Z,226.45
2023-05-05T06:20:40.788Z,214.85
2023-05-05T06:21:41.181Z,208.84
2023-05-05T06:22:41.652Z,207.06
2023-05-05T06:23:41.877Z,213.83
2023-05-05T06:24:40.666Z,209.40
2023-05-05T06:25:40.695Z,203.50
2023-05-05T06:26:40.725Z,203.49
2023-05-05T06:27:41.086Z,198.78
2023-05-05T06:28:40.682Z,181.00
2023-05-05T06:29:40.587Z,172.99
2023-05-05T06:30:40.549Z,172.87
2023-05-05T06:31:40.659Z,171.90
2023-05-05T06:32:40.627Z,185.10
2023-05-05T06:33:40.599Z,194.53
2023-05-05T06:34:40.507Z,195.29
2023-05-05T06:35:40.461Z,197.92
2023-05-05T06:36:40.514Z,175.75
2023-05-05T06:37:40.407Z,172.97
2023-05-05T06:38:40.943Z,173.81
2023-05-05T06:39:41.369Z,174.31
2023-05-05T06:40:40.355Z,173.10
2023-05-05T06:41:40.372Z,175.52
2023-05-05T06:42:40.412Z,168.83
2023-05-05T06:43:41.341Z,173.64
2023-05-05T06:44:40.546Z,180.47
2023-05-05T06:45:41.951Z,186.04
2023-05-05T06:46:40.464Z,186.32
2023-05-05T06:47:40.442Z,188.95
2023-05-05T06:48:40.857Z,196.94
2023-05-05T06:49:40.329Z,211.21
2023-05-05T06:50:40.269Z,226.64
2023-05-05T06:51:42.695Z,232.32
2023-05-05T06:52:40.406Z,231.32
2023-05-05T12:17:52.790Z,25.00
2023-05-05T12:18:53.504Z,25.00
2023-05-05T12:19:53.486Z,25.00
2023-05-05T12:20:53.463Z,25.00
2023-05-05T12:21:53.462Z,25.00
2023-05-05T12:22:53.480Z,78.02
2023-05-05T12:23:53.495Z,77.64
2023-05-05T12:24:54.944Z,190.66
2023-05-05T12:25:53.683Z,307.83
2023-05-05T12:26:53.714Z,248.58
2023-05-05T12:27:53.767Z,123.96
2023-05-05T12:28:53.841Z,0.00
2023-05-05T12:29:53.872Z,0.00
2023-05-05T12:30:55.060Z,0.00
2023-05-05T12:31:53.925Z,0.00
2023-05-05T12:32:53.950Z,0.00
2023-05-05T12:33:54.016Z,4.99
2023-05-05T12:34:53.970Z,27.91
2023-05-05T12:35:53.988Z,0.00
2023-05-05T12:36:54.023Z,0.00
2023-05-05T12:37:54.048Z,37.10
2023-05-05T12:38:54.090Z,0.00
2023-05-05T12:39:54.205Z,6.26
2023-05-05T12:40:54.186Z,10.99
2023-05-05T12:41:54.272Z,66.00
2023-05-05T12:42:54.295Z,26.74
2023-05-05T12:43:54.418Z,55.98
2023-05-05T12:44:54.389Z,2.44
2023-05-05T12:45:54.487Z,5.27
2023-05-05T12:46:56.027Z,12.93
2023-05-05T12:47:54.681Z,32.62
2023-05-05T12:48:54.684Z,75.37
2023-05-05T12:49:54.819Z,93.41
2023-05-05T12:50:54.803Z,18.70
2023-05-05T12:51:54.837Z,40.70
2023-05-05T12:52:54.894Z,17.84
2023-05-05T12:53:54.958Z,46.62
2023-05-05T12:54:55.491Z,72.77
2023-05-05T12:55:55.052Z,32.03
2023-05-05T12:56:55.104Z,44.29
2023-05-05T12:57:55.103Z,33.66
2023-05-05T12:58:55.143Z,0.00
2023-05-05T12:59:55.496Z,3.89
2023-05-05T13:00:55.333Z,45.02
2023-05-05T13:01:55.553Z,70.36
2023-05-05T13:02:55.468Z,97.72
2023-05-05T13:03:55.489Z,85.17
2023-05-05T13:04:55.504Z,74.49
2023-05-05T13:05:55.631Z,96.08
2023-05-05T13:06:55.572Z,83.58
2023-05-05T13:07:55.596Z,39.13
2023-05-05T13:08:55.661Z,25.27
2023-05-05T13:09:56.033Z,33.36
2023-05-05T13:10:55.747Z,17.56
2023-05-05T13:11:55.815Z,46.40
2023-05-05T13:12:56.062Z,40.06
2023-05-05T13:13:55.907Z,48.64
2023-05-05T13:14:55.958Z,61.87
2023-05-05T13:15:56.033Z,45.10
2023-05-05T13:16:56.075Z,65.83
2023-05-05T13:17:56.220Z,100.90
2023-05-05T13:18:56.220Z,101.31
2023-05-05T13:19:56.303Z,81.79
2023-05-05T13:20:56.348Z,72.40
2023-05-05T13:21:56.474Z,110.71
2023-05-05T13:22:56.487Z,86.23
2023-05-05T13:24:05.124Z,46.52
2023-05-05T13:24:56.602Z,19.35
2023-05-05T13:25:56.997Z,32.30
2023-05-05T13:26:56.681Z,39.33
2023-05-05T13:27:56.722Z,65.75
2023-05-05T13:28:56.750Z,103.61
2023-05-05T13:29:56.786Z,103.16
2023-05-05T13:30:56.829Z,111.42
2023-05-05T13:31:56.869Z,144.89
2023-05-05T13:32:56.852Z,129.81
2023-05-05T13:33:56.875Z,90.59
2023-05-05T13:34:56.907Z,63.59
2023-05-05T13:35:56.917Z,28.92
2023-05-05T13:36:56.988Z,22.49
2023-05-05T13:37:57.066Z,30.20
2023-05-05T13:38:57.005Z,78.22
2023-05-05T13:39:57.032Z,135.18
2023-05-05T13:40:57.081Z,111.93
2023-05-05T13:41:57.101Z,81.85
2023-05-05T13:42:57.172Z,108.81
2023-05-05T13:43:57.228Z,112.87
2023-05-05T13:44:57.262Z,84.37
2023-05-05T13:46:05.542Z,53.49
2023-05-05T13:46:57.383Z,26.12
2023-05-05T13:47:57.378Z,39.92
2023-05-05T13:48:57.512Z,54.55
2023-05-05T13:49:57.378Z,39.40
2023-05-05T13:50:57.385Z,29.24
2023-05-05T13:51:57.406Z,52.02
2023-05-05T13:52:57.408Z,32.41
2023-05-05T13:53:57.573Z,28.77
2023-05-05T13:54:57.460Z,23.30
2023-05-05T13:55:57.492Z,22.10
2023-05-05T13:56:57.507Z,26.94
2023-05-05T13:57:57.515Z,40.45
2023-05-05T13:58:57.540Z,22.47
2023-05-05T13:59:57.593Z,30.70
2023-05-05T14:00:58.218Z,39.51
2023-05-05T14:01:57.594Z,53.42
2023-05-05T14:02:57.625Z,55.67
2023-05-05T14:03:58.000Z,69.98
2023-05-05T14:04:57.634Z,56.46
2023-05-05T14:05:58.060Z,71.81
2023-05-05T14:06:57.649Z,87.03
2023-05-05T14:07:57.662Z,51.74
2023-05-05T14:08:58.017Z,45.14
2023-05-05T14:09:57.804Z,16.41
2023-05-05T14:10:58.019Z,33.89
2023-05-05T14:11:57.727Z,65.59
2023-05-05T14:12:57.793Z,39.30
2023-05-05T14:13:57.772Z,18.57
2023-05-05T14:14:57.778Z,19.87
2023-05-05T14:15:57.838Z,48.96
2023-05-05T14:16:57.882Z,46.77
2023-05-05T14:17:57.882Z,26.89
2023-05-05T14:18:57.853Z,24.53
2023-05-05T14:19:57.884Z,24.94
2023-05-05T14:20:57.921Z,11.86
2023-05-05T14:21:57.928Z,25.82
2023-05-05T14:22:57.946Z,35.39
2023-05-05T14:23:58.005Z,49.27
2023-05-05T14:24:58.016Z,67.06
2023-05-05T14:25:58.196Z,86.58
2023-05-05T14:26:58.059Z,72.50
2023-05-05T14:27:58.125Z,73.58
2023-05-05T14:28:58.175Z,55.26
2023-05-05T14:29:58.234Z,39.33
2023-05-05T14:30:58.295Z,33.62
2023-05-05T14:31:58.334Z,35.39
2023-05-05T14:32:58.377Z,22.91
2023-05-05T14:33:58.526Z,32.45
2023-05-05T14:34:58.460Z,63.36
2023-05-05T14:35:58.531Z,58.95
2023-05-05T14:36:58.644Z,49.48
2023-05-05T14:37:58.641Z,38.30
2023-05-05T14:38:59.043Z,32.99
2023-05-05T14:39:58.771Z,19.44
2023-05-05T14:40:58.889Z,41.02
2023-05-05T14:41:58.972Z,66.07
2023-05-05T14:42:58.936Z,81.33
2023-05-05T14:43:59.538Z,57.93
2023-05-05T14:44:59.041Z,67.68
2023-05-05T14:45:59.155Z,60.92
2023-05-05T14:46:59.529Z,58.82
2023-05-05T14:47:59.341Z,73.83
2023-05-05T14:48:59.306Z,72.11
2023-05-05T14:49:59.340Z,85.41
2023-05-05T14:50:59.436Z,70.87
2023-05-05T14:51:59.387Z,69.55
2023-05-05T14:52:59.451Z,66.68
2023-05-05T14:53:59.507Z,77.09
2023-05-05T14:54:59.575Z,174.32
2023-05-05T14:55:59.657Z,85.78
2023-05-05T14:56:59.762Z,71.89
2023-05-05T14:57:59.932Z,79.94
2023-05-05T14:58:59.914Z,66.89
2023-05-05T15:00:00.009Z,65.19
2023-05-05T15:01:00.071Z,66.92
2023-05-05T15:02:00.268Z,85.39
2023-05-05T15:03:00.268Z,87.26
2023-05-05T15:04:00.339Z,96.21
2023-05-05T15:05:00.300Z,111.74
2023-05-05T15:06:00.349Z,125.72
2023-05-05T15:07:00.396Z,135.36
2023-05-05T15:08:00.454Z,115.37
2023-05-05T15:09:00.563Z,103.52
2023-05-05T15:10:00.608Z,99.72
2023-05-05T15:11:00.668Z,88.47
2023-05-05T15:12:00.723Z,87.58
2023-05-05T15:13:00.853Z,116.62
2023-05-05T15:14:00.894Z,150.93
2023-05-05T15:15:00.908Z,150.86
2023-05-05T15:16:01.054Z,147.66
2023-05-05T15:17:01.096Z,144.26
2023-05-05T15:18:01.248Z,138.02
2023-05-05T15:19:01.223Z,120.64
2023-05-05T15:20:01.309Z,115.56
2023-05-05T15:21:01.360Z,118.94
2023-05-05T15:22:01.460Z,131.59
2023-05-05T15:23:01.527Z,125.63
2023-05-05T15:24:01.596Z,126.19
2023-05-05T15:25:01.657Z,140.56
2023-05-05T15:26:01.750Z,129.34
2023-05-05T15:27:01.810Z,124.45
2023-05-05T15:28:01.877Z,125.54
2023-05-05T15:29:01.928Z,125.82
2023-05-05T15:30:02.053Z,114.19
2023-05-05T15:31:02.050Z,127.35
2023-05-05T15:32:02.147Z,110.71
2023-05-05T15:33:02.298Z,110.56
2023-05-05T15:34:02.308Z,116.90
2023-05-05T15:35:02.399Z,106.09
2023-05-05T15:36:02.452Z,117.11
2023-05-05T15:37:02.563Z,127.99
2023-05-05T15:38:02.643Z,110.23
2023-05-05T15:39:02.767Z,113.12
2023-05-05T15:40:02.985Z,138.53
2023-05-05T15:41:02.981Z,156.41
2023-05-05T15:42:03.062Z,161.88
2023-05-05T15:43:03.147Z,132.18
2023-05-05T15:44:03.192Z,160.16
2023-05-05T15:45:03.290Z,192.52
2023-05-05T15:46:03.377Z,208.20
2023-05-05T15:47:03.451Z,186.26
2023-05-05T15:48:03.521Z,158.23
2023-05-05T15:49:03.543Z,148.08
2023-05-05T15:50:03.628Z,135.84
2023-05-05T15:51:03.695Z,135.82
2023-05-05T15:52:03.748Z,134.39
2023-05-05T15:53:03.814Z,137.35
2023-05-05T15:54:03.950Z,151.39
2023-05-05T15:55:04.039Z,139.45
2023-05-05T15:56:04.101Z,133.58
2023-05-05T15:57:04.176Z,127.94
2023-05-05T15:58:04.264Z,141.34
2023-05-05T15:59:04.382Z,146.83
2023-05-05T16:00:04.432Z,163.21
2023-05-05T16:01:04.549Z,176.19
2023-05-05T16:02:04.713Z,178.73
2023-05-05T16:03:04.754Z,192.98
2023-05-05T16:04:04.736Z,208.35
2023-05-05T16:05:04.884Z,214.47
2023-05-05T16:06:04.823Z,211.10
2023-05-05T16:07:04.877Z,197.24
2023-05-05T16:08:04.939Z,211.49
2023-05-05T16:09:04.988Z,219.87
2023-05-05T16:10:05.027Z,236.99
2023-05-05T16:11:05.098Z,217.48
2023-05-05T16:12:05.190Z,203.38
2023-05-05T16:13:05.294Z,194.77
2023-05-05T16:14:05.377Z,193.39
2023-05-05T16:15:05.513Z,204.36
2023-05-05T16:16:05.571Z,223.94
2023-05-05T16:17:05.692Z,236.61
2023-05-05T16:18:05.926Z,233.48
2023-05-05T16:19:05.871Z,242.59
2023-05-05T16:20:06.001Z,241.46
2023-05-05T16:21:06.072Z,220.19
2023-05-05T16:22:06.153Z,221.56
2023-05-05T16:23:06.253Z,229.22
2023-05-05T16:24:06.326Z,225.79
2023-05-05T16:25:06.552Z,190.76
2023-05-05T16:26:06.480Z,188.41
2023-05-05T16:27:06.551Z,198.35
2023-05-05T16:28:06.645Z,179.16
2023-05-05T16:29:06.710Z,181.58
2023-05-05T16:30:06.839Z,172.00
2023-05-05T16:31:06.955Z,174.19
2023-05-05T16:32:07.058Z,180.80
2023-05-05T16:33:07.172Z,173.90
2023-05-05T16:34:07.309Z,185.59
2023-05-05T16:35:07.559Z,175.19
2023-05-05T16:36:07.321Z,172.15
2023-05-05T16:37:07.402Z,175.55
2023-05-05T16:38:07.471Z,170.02
2023-05-05T16:39:07.571Z,176.05
2023-05-05T16:40:08.528Z,179.17
2023-05-05T16:41:07.754Z,181.26
2023-05-05T16:42:07.803Z,172.53
2023-05-05T16:43:07.917Z,181.11
2023-05-05T16:44:07.987Z,196.28
2023-05-05T16:45:09.042Z,194.53
2023-05-05T16:46:08.129Z,194.68
2023-05-05T16:47:08.177Z,214.87
2023-05-05T16:48:09.237Z,231.49
2023-05-05T16:49:08.864Z,205.48
2023-05-05T16:50:08.654Z,210.73
2023-05-05T16:51:08.632Z,197.83
2023-05-05T16:52:08.724Z,193.20
2023-05-05T16:53:08.845Z,194.74
2023-05-05T16:54:08.969Z,224.11
2023-05-05T16:55:09.281Z,226.34
2023-05-05T16:56:09.211Z,226.56
2023-05-05T16:57:09.317Z,244.96
2023-05-05T16:58:09.440Z,236.05
2023-05-05T16:59:09.589Z,238.93
2023-05-05T17:00:09.620Z,238.04
2023-05-05T17:01:09.765Z,246.26
2023-05-05T17:02:09.862Z,232.61
2023-05-05T17:03:09.848Z,234.35
2023-05-05T17:04:09.943Z,231.92
2023-05-05T17:05:10.328Z,249.96
2023-05-05T17:06:10.188Z,262.08
2023-05-05T17:07:10.196Z,248.63
2023-05-05T17:08:10.304Z,237.94
2023-05-05T17:09:10.422Z,245.84
2023-05-05T17:10:10.548Z,250.60
2023-05-05T17:11:11.640Z,224.40
2023-05-05T17:12:10.806Z,226.87
2023-05-05T17:13:10.947Z,236.47
2023-05-05T17:14:11.005Z,236.53
2023-05-05T17:15:11.168Z,241.17
2023-05-05T17:16:11.188Z,248.70
2023-05-05T17:17:11.297Z,237.72
2023-05-05T17:18:11.464Z,250.24
2023-05-05T17:19:11.530Z,232.18
2023-05-05T17:20:11.665Z,220.34
2023-05-05T17:21:11.762Z,217.27
2023-05-05T17:22:11.976Z,231.04
2023-05-05T17:23:11.945Z,235.98
2023-05-05T17:24:12.066Z,247.14
2023-05-05T17:25:12.327Z,250.95
2023-05-05T17:26:12.278Z,261.06
2023-05-05T17:28:30.616Z,25.00
2023-05-05T17:29:31.603Z,25.00
2023-05-05T17:30:31.591Z,25.00
2023-05-05T17:31:31.598Z,25.00
2023-05-05T17:32:31.592Z,25.00
2023-05-05T17:33:31.578Z,26.27
2023-05-05T17:34:31.577Z,25.00
2023-05-05T17:35:31.581Z,55.32
2023-05-05T17:36:31.557Z,85.74
2023-05-05T17:37:31.631Z,67.72
2023-05-05T17:38:31.522Z,58.96
2023-05-05T17:39:31.509Z,85.84
2023-05-05T17:40:31.751Z,92.72
2023-05-05T17:41:32.300Z,25.56
2023-05-05T17:42:32.163Z,39.67
2023-05-05T17:43:31.736Z,102.27
2023-05-05T17:44:32.150Z,115.51
2023-05-05T17:45:31.912Z,146.91
2023-05-05T17:46:31.934Z,75.04
2023-05-05T17:47:31.869Z,73.42
2023-05-05T17:48:31.499Z,49.97
2023-05-05T17:49:31.462Z,18.91
2023-05-05T17:50:31.487Z,20.61
2023-05-05T17:51:31.471Z,21.76
2023-05-05T17:52:31.489Z,32.34
2023-05-05T17:53:31.628Z,54.31
2023-05-05T17:54:31.472Z,0.00
2023-05-05T17:55:31.483Z,0.00
2023-05-05T17:56:31.469Z,0.00
2023-05-05T17:57:31.476Z,0.00
2023-05-05T17:58:31.464Z,7.86
2023-05-05T17:59:31.469Z,45.85
2023-05-05T18:00:31.467Z,39.25
2023-05-05T18:01:31.529Z,39.32
2023-05-05T18:02:31.529Z,16.01
2023-05-05T18:03:31.800Z,88.13
2023-05-05T18:04:31.576Z,204.35
2023-05-05T18:05:31.643Z,220.63
2023-05-05T18:06:31.684Z,174.05
2023-05-05T18:07:31.727Z,146.17
2023-05-05T18:08:31.762Z,90.58
2023-05-05T18:09:31.919Z,104.11